sensor_id;sensor_type;location;lat;lon;timestamp;P1;durP1;ratioP1;P2;durP2;ratioP2
20140;SDS011;10231;47.702;9.826;2023-02-28T00:00:19;7.03;;;6.47;;
20140;SDS011;10231;47.702;9.826;2023-02-28T00:02:45;7.83;;;7.03;;
20140;SDS011;10231;47.702;9.826;2023-02-28T00:05:12;7.60;;;6.90;;
20140;SDS011;10231;47.702;9.826;2023-02-28T00:07:39;8.20;;;7.37;;
20140;SDS011;10231;47.702;9.826;2023-02-28T00:10:05;8.37;;;7.10;;
20140;SDS011;10231;47.702;9.826;2023-02-28T00:12:32;8.33;;;7.00;;
20140;SDS011;10231;47.702;9.826;2023-02-28T00:14:58;8.17;;;7.37;;
20140;SDS011;10231;47.702;9.826;2023-02-28T00:17:24;8.07;;;7.37;;
20140;SDS011;10231;47.702;9.826;2023-02-28T00:19:50;7.67;;;6.87;;
20140;SDS011;10231;47.702;9.826;2023-02-28T00:22:21;7.43;;;6.83;;
20140;SDS011;10231;47.702;9.826;2023-02-28T00:24:47;7.77;;;7.03;;
20140;SDS011;10231;47.702;9.826;2023-02-28T00:27:12;8.17;;;7.13;;
20140;SDS011;10231;47.702;9.826;2023-02-28T00:29:39;7.47;;;6.77;;
20140;SDS011;10231;47.702;9.826;2023-02-28T00:32:05;7.50;;;6.80;;
20140;SDS011;10231;47.702;9.826;2023-02-28T00:34:31;8.03;;;7.33;;
20140;SDS011;10231;47.702;9.826;2023-02-28T00:37:03;7.50;;;6.90;;
20140;SDS011;10231;47.702;9.826;2023-02-28T00:39:30;8.37;;;7.57;;
20140;SDS011;10231;47.702;9.826;2023-02-28T00:41:56;7.73;;;7.03;;
20140;SDS011;10231;47.702;9.826;2023-02-28T00:44:21;7.47;;;6.83;;
20140;SDS011;10231;47.702;9.826;2023-02-28T00:46:47;7.00;;;6.40;;
20140;SDS011;10231;47.702;9.826;2023-02-28T00:49:12;7.57;;;6.97;;
20140;SDS011;10231;47.702;9.826;2023-02-28T00:51:38;7.80;;;7.10;;
20140;SDS011;10231;47.702;9.826;2023-02-28T00:54:03;7.27;;;6.53;;
20140;SDS011;10231;47.702;9.826;2023-02-28T00:56:29;7.00;;;6.40;;
20140;SDS011;10231;47.702;9.826;2023-02-28T00:58:54;7.87;;;6.93;;
20140;SDS011;10231;47.702;9.826;2023-02-28T01:01:20;7.77;;;6.97;;
20140;SDS011;10231;47.702;9.826;2023-02-28T01:03:46;7.47;;;6.87;;
20140;SDS011;10231;47.702;9.826;2023-02-28T01:06:11;7.07;;;6.57;;
20140;SDS011;10231;47.702;9.826;2023-02-28T01:08:37;8.00;;;7.30;;
20140;SDS011;10231;47.702;9.826;2023-02-28T01:11:09;7.87;;;7.10;;
20140;SDS011;10231;47.702;9.826;2023-02-28T01:13:36;8.53;;;7.13;;
20140;SDS011;10231;47.702;9.826;2023-02-28T01:16:02;6.50;;;5.90;;
20140;SDS011;10231;47.702;9.826;2023-02-28T01:18:27;6.97;;;6.37;;
20140;SDS011;10231;47.702;9.826;2023-02-28T01:20:53;7.50;;;6.80;;
20140;SDS011;10231;47.702;9.826;2023-02-28T01:23:19;7.37;;;6.70;;
20140;SDS011;10231;47.702;9.826;2023-02-28T01:25:48;8.00;;;7.30;;
20140;SDS011;10231;47.702;9.826;2023-02-28T01:28:14;8.63;;;7.73;;
20140;SDS011;10231;47.702;9.826;2023-02-28T01:30:40;7.60;;;6.83;;
20140;SDS011;10231;47.702;9.826;2023-02-28T01:33:05;7.70;;;7.00;;
20140;SDS011;10231;47.702;9.826;2023-02-28T01:35:34;7.57;;;6.87;;
20140;SDS011;10231;47.702;9.826;2023-02-28T01:38:00;7.10;;;6.50;;
20140;SDS011;10231;47.702;9.826;2023-02-28T01:40:26;7.83;;;7.07;;
20140;SDS011;10231;47.702;9.826;2023-02-28T01:42:52;6.90;;;6.30;;
20140;SDS011;10231;47.702;9.826;2023-02-28T01:45:27;8.73;;;8.03;;
20140;SDS011;10231;47.702;9.826;2023-02-28T01:47:58;7.10;;;6.50;;
20140;SDS011;10231;47.702;9.826;2023-02-28T01:50:28;7.33;;;6.63;;
20140;SDS011;10231;47.702;9.826;2023-02-28T01:52:59;7.83;;;7.20;;
20140;SDS011;10231;47.702;9.826;2023-02-28T01:55:29;7.53;;;6.93;;
20140;SDS011;10231;47.702;9.826;2023-02-28T01:57:57;7.47;;;6.77;;
20140;SDS011;10231;47.702;9.826;2023-02-28T02:00:25;7.40;;;6.80;;
20140;SDS011;10231;47.702;9.826;2023-02-28T02:02:53;8.20;;;7.30;;
20140;SDS011;10231;47.702;9.826;2023-02-28T02:05:25;6.67;;;6.07;;
20140;SDS011;10231;47.702;9.826;2023-02-28T02:07:57;7.43;;;6.73;;
20140;SDS011;10231;47.702;9.826;2023-02-28T02:10:30;8.23;;;7.43;;
20140;SDS011;10231;47.702;9.826;2023-02-28T02:18:17;7.47;;;6.73;;
20140;SDS011;10231;47.702;9.826;2023-02-28T02:20:59;8.43;;;7.73;;
20140;SDS011;10231;47.702;9.826;2023-02-28T02:32:05;7.50;;;6.83;;
20140;SDS011;10231;47.702;9.826;2023-02-28T02:34:56;8.37;;;7.40;;
20140;SDS011;10231;47.702;9.826;2023-02-28T02:42:47;8.47;;;7.73;;
20140;SDS011;10231;47.702;9.826;2023-02-28T02:45:25;7.87;;;7.17;;
20140;SDS011;10231;47.702;9.826;2023-02-28T02:48:00;8.90;;;8.00;;
20140;SDS011;10231;47.702;9.826;2023-02-28T02:50:32;8.27;;;7.57;;
20140;SDS011;10231;47.702;9.826;2023-02-28T02:53:04;7.57;;;6.90;;
20140;SDS011;10231;47.702;9.826;2023-02-28T02:55:33;7.80;;;7.00;;
20140;SDS011;10231;47.702;9.826;2023-02-28T02:58:03;7.77;;;7.13;;
20140;SDS011;10231;47.702;9.826;2023-02-28T03:00:37;8.37;;;7.57;;
20140;SDS011;10231;47.702;9.826;2023-02-28T03:03:08;7.73;;;7.00;;
20140;SDS011;10231;47.702;9.826;2023-02-28T03:05:45;8.20;;;7.50;;
20140;SDS011;10231;47.702;9.826;2023-02-28T03:08:12;7.70;;;7.00;;
20140;SDS011;10231;47.702;9.826;2023-02-28T03:10:40;7.93;;;7.20;;
20140;SDS011;10231;47.702;9.826;2023-02-28T03:13:20;7.90;;;7.20;;
20140;SDS011;10231;47.702;9.826;2023-02-28T03:19:10;7.93;;;7.23;;
20140;SDS011;10231;47.702;9.826;2023-02-28T03:24:18;8.40;;;7.63;;
20140;SDS011;10231;47.702;9.826;2023-02-28T03:26:52;7.80;;;7.20;;
20140;SDS011;10231;47.702;9.826;2023-02-28T03:32:06;7.50;;;6.80;;
20140;SDS011;10231;47.702;9.826;2023-02-28T03:34:43;8.20;;;7.50;;
20140;SDS011;10231;47.702;9.826;2023-02-28T03:37:22;8.33;;;7.57;;
20140;SDS011;10231;47.702;9.826;2023-02-28T03:39:53;8.03;;;7.33;;
20140;SDS011;10231;47.702;9.826;2023-02-28T03:42:25;7.47;;;6.77;;
20140;SDS011;10231;47.702;9.826;2023-02-28T03:44:54;9.07;;;8.17;;
20140;SDS011;10231;47.702;9.826;2023-02-28T03:47:51;9.27;;;8.47;;
20140;SDS011;10231;47.702;9.826;2023-02-28T03:50:30;8.57;;;7.83;;
20140;SDS011;10231;47.702;9.826;2023-02-28T03:53:07;8.43;;;7.73;;
20140;SDS011;10231;47.702;9.826;2023-02-28T03:55:46;8.43;;;7.67;;
20140;SDS011;10231;47.702;9.826;2023-02-28T03:58:26;9.30;;;8.40;;
20140;SDS011;10231;47.702;9.826;2023-02-28T04:01:23;8.97;;;8.03;;
20140;SDS011;10231;47.702;9.826;2023-02-28T04:03:51;8.93;;;8.03;;
20140;SDS011;10231;47.702;9.826;2023-02-28T04:06:18;8.50;;;7.70;;
20140;SDS011;10231;47.702;9.826;2023-02-28T04:08:45;8.60;;;7.43;;
20140;SDS011;10231;47.702;9.826;2023-02-28T04:11:23;8.53;;;7.73;;
20140;SDS011;10231;47.702;9.826;2023-02-28T04:13:55;8.33;;;7.53;;
20140;SDS011;10231;47.702;9.826;2023-02-28T04:16:20;8.50;;;7.80;;
20140;SDS011;10231;47.702;9.826;2023-02-28T04:18:46;8.57;;;7.87;;
20140;SDS011;10231;47.702;9.826;2023-02-28T04:21:12;9.30;;;8.50;;
20140;SDS011;10231;47.702;9.826;2023-02-28T04:23:38;8.40;;;7.60;;
20140;SDS011;10231;47.702;9.826;2023-02-28T04:26:04;8.80;;;8.00;;
20140;SDS011;10231;47.702;9.826;2023-02-28T04:28:30;8.60;;;7.80;;
20140;SDS011;10231;47.702;9.826;2023-02-28T04:30:57;8.53;;;7.83;;
20140;SDS011;10231;47.702;9.826;2023-02-28T04:33:25;8.90;;;8.10;;
20140;SDS011;10231;47.702;9.826;2023-02-28T04:36:06;9.07;;;8.23;;
20140;SDS011;10231;47.702;9.826;2023-02-28T04:38:34;9.97;;;9.10;;
20140;SDS011;10231;47.702;9.826;2023-02-28T04:41:03;9.13;;;8.33;;
20140;SDS011;10231;47.702;9.826;2023-02-28T04:43:29;8.37;;;7.67;;
20140;SDS011;10231;47.702;9.826;2023-02-28T04:45:56;9.27;;;8.47;;
20140;SDS011;10231;47.702;9.826;2023-02-28T04:48:29;8.27;;;7.47;;
20140;SDS011;10231;47.702;9.826;2023-02-28T04:50:59;8.80;;;7.87;;
20140;SDS011;10231;47.702;9.826;2023-02-28T04:53:26;8.50;;;7.67;;
20140;SDS011;10231;47.702;9.826;2023-02-28T04:55:53;8.23;;;7.53;;
20140;SDS011;10231;47.702;9.826;2023-02-28T04:58:18;8.40;;;7.70;;
20140;SDS011;10231;47.702;9.826;2023-02-28T05:00:44;8.87;;;7.63;;
20140;SDS011;10231;47.702;9.826;2023-02-28T05:03:10;7.97;;;7.27;;
20140;SDS011;10231;47.702;9.826;2023-02-28T05:05:35;8.40;;;7.50;;
20140;SDS011;10231;47.702;9.826;2023-02-28T05:08:01;10.00;;;9.00;;
20140;SDS011;10231;47.702;9.826;2023-02-28T05:10:26;8.83;;;8.03;;
20140;SDS011;10231;47.702;9.826;2023-02-28T05:12:52;9.70;;;8.80;;
20140;SDS011;10231;47.702;9.826;2023-02-28T05:15:17;8.50;;;7.70;;
20140;SDS011;10231;47.702;9.826;2023-02-28T05:17:43;8.37;;;7.57;;
20140;SDS011;10231;47.702;9.826;2023-02-28T05:20:09;9.10;;;8.30;;
20140;SDS011;10231;47.702;9.826;2023-02-28T05:22:38;9.00;;;8.20;;
20140;SDS011;10231;47.702;9.826;2023-02-28T05:25:05;9.53;;;8.57;;
20140;SDS011;10231;47.702;9.826;2023-02-28T05:27:31;8.40;;;7.67;;
20140;SDS011;10231;47.702;9.826;2023-02-28T05:29:56;9.37;;;8.47;;
20140;SDS011;10231;47.702;9.826;2023-02-28T05:32:22;8.73;;;7.93;;
20140;SDS011;10231;47.702;9.826;2023-02-28T05:34:48;8.73;;;8.00;;
20140;SDS011;10231;47.702;9.826;2023-02-28T05:37:13;9.33;;;8.43;;
20140;SDS011;10231;47.702;9.826;2023-02-28T05:39:40;9.60;;;8.70;;
20140;SDS011;10231;47.702;9.826;2023-02-28T05:42:06;8.40;;;7.53;;
20140;SDS011;10231;47.702;9.826;2023-02-28T05:44:32;9.47;;;8.43;;
20140;SDS011;10231;47.702;9.826;2023-02-28T05:46:58;9.67;;;8.87;;
20140;SDS011;10231;47.702;9.826;2023-02-28T05:49:23;9.30;;;8.40;;
20140;SDS011;10231;47.702;9.826;2023-02-28T05:51:49;9.00;;;8.10;;
20140;SDS011;10231;47.702;9.826;2023-02-28T05:54:15;8.67;;;7.77;;
20140;SDS011;10231;47.702;9.826;2023-02-28T05:56:40;9.13;;;8.23;;
20140;SDS011;10231;47.702;9.826;2023-02-28T05:59:09;9.23;;;8.33;;
20140;SDS011;10231;47.702;9.826;2023-02-28T06:01:37;8.97;;;8.17;;
20140;SDS011;10231;47.702;9.826;2023-02-28T06:04:04;10.20;;;9.20;;
20140;SDS011;10231;47.702;9.826;2023-02-28T06:06:31;9.60;;;8.67;;
20140;SDS011;10231;47.702;9.826;2023-02-28T06:08:59;10.53;;;8.83;;
20140;SDS011;10231;47.702;9.826;2023-02-28T06:11:25;8.87;;;8.07;;
20140;SDS011;10231;47.702;9.826;2023-02-28T06:13:55;9.37;;;8.30;;
20140;SDS011;10231;47.702;9.826;2023-02-28T06:16:22;9.67;;;8.70;;
20140;SDS011;10231;47.702;9.826;2023-02-28T06:18:48;9.47;;;8.53;;
20140;SDS011;10231;47.702;9.826;2023-02-28T06:21:14;10.47;;;9.37;;
20140;SDS011;10231;47.702;9.826;2023-02-28T06:23:39;10.07;;;8.67;;
20140;SDS011;10231;47.702;9.826;2023-02-28T06:26:05;9.77;;;8.87;;
20140;SDS011;10231;47.702;9.826;2023-02-28T06:28:31;9.17;;;8.27;;
20140;SDS011;10231;47.702;9.826;2023-02-28T06:30:57;9.23;;;8.43;;
20140;SDS011;10231;47.702;9.826;2023-02-28T06:33:24;10.30;;;9.13;;
20140;SDS011;10231;47.702;9.826;2023-02-28T06:35:50;10.17;;;9.17;;
20140;SDS011;10231;47.702;9.826;2023-02-28T06:38:16;9.77;;;8.87;;
20140;SDS011;10231;47.702;9.826;2023-02-28T06:40:43;9.87;;;8.87;;
20140;SDS011;10231;47.702;9.826;2023-02-28T06:43:09;10.00;;;9.10;;
20140;SDS011;10231;47.702;9.826;2023-02-28T06:45:40;12.67;;;9.57;;
20140;SDS011;10231;47.702;9.826;2023-02-28T06:48:07;10.13;;;9.10;;
20140;SDS011;10231;47.702;9.826;2023-02-28T06:50:32;10.60;;;9.60;;
20140;SDS011;10231;47.702;9.826;2023-02-28T06:52:58;10.13;;;9.00;;
20140;SDS011;10231;47.702;9.826;2023-02-28T06:55:23;10.10;;;9.10;;
20140;SDS011;10231;47.702;9.826;2023-02-28T06:57:49;10.17;;;9.27;;
20140;SDS011;10231;47.702;9.826;2023-02-28T07:00:15;10.73;;;9.63;;
20140;SDS011;10231;47.702;9.826;2023-02-28T07:02:41;10.30;;;9.27;;
20140;SDS011;10231;47.702;9.826;2023-02-28T07:05:07;9.47;;;8.47;;
20140;SDS011;10231;47.702;9.826;2023-02-28T07:07:33;10.47;;;9.40;;
20140;SDS011;10231;47.702;9.826;2023-02-28T07:09:59;10.30;;;9.30;;
20140;SDS011;10231;47.702;9.826;2023-02-28T07:12:24;9.60;;;8.63;;
20140;SDS011;10231;47.702;9.826;2023-02-28T07:14:50;10.20;;;9.17;;
20140;SDS011;10231;47.702;9.826;2023-02-28T07:17:15;10.37;;;9.40;;
20140;SDS011;10231;47.702;9.826;2023-02-28T07:19:41;10.63;;;9.17;;
20140;SDS011;10231;47.702;9.826;2023-02-28T07:22:07;10.50;;;9.50;;
20140;SDS011;10231;47.702;9.826;2023-02-28T07:24:32;11.10;;;10.00;;
20140;SDS011;10231;47.702;9.826;2023-02-28T07:26:58;9.60;;;8.63;;
20140;SDS011;10231;47.702;9.826;2023-02-28T07:29:24;9.93;;;9.03;;
20140;SDS011;10231;47.702;9.826;2023-02-28T07:31:50;10.00;;;8.80;;
20140;SDS011;10231;47.702;9.826;2023-02-28T07:34:17;10.80;;;9.60;;
20140;SDS011;10231;47.702;9.826;2023-02-28T07:36:44;9.87;;;8.83;;
20140;SDS011;10231;47.702;9.826;2023-02-28T07:39:09;10.40;;;9.30;;
20140;SDS011;10231;47.702;9.826;2023-02-28T07:41:35;9.73;;;8.77;;
20140;SDS011;10231;47.702;9.826;2023-02-28T07:44:04;10.07;;;9.07;;
20140;SDS011;10231;47.702;9.826;2023-02-28T07:46:30;10.87;;;9.70;;
20140;SDS011;10231;47.702;9.826;2023-02-28T07:49:00;10.03;;;8.87;;
20140;SDS011;10231;47.702;9.826;2023-02-28T07:51:27;9.50;;;8.60;;
20140;SDS011;10231;47.702;9.826;2023-02-28T07:53:54;11.20;;;9.83;;
20140;SDS011;10231;47.702;9.826;2023-02-28T07:56:20;10.20;;;9.07;;
20140;SDS011;10231;47.702;9.826;2023-02-28T07:58:45;10.37;;;9.27;;
20140;SDS011;10231;47.702;9.826;2023-02-28T08:01:11;9.80;;;8.90;;
20140;SDS011;10231;47.702;9.826;2023-02-28T08:03:37;10.67;;;9.67;;
20140;SDS011;10231;47.702;9.826;2023-02-28T08:06:04;10.27;;;9.27;;
20140;SDS011;10231;47.702;9.826;2023-02-28T08:08:31;10.37;;;9.37;;
20140;SDS011;10231;47.702;9.826;2023-02-28T08:11:00;10.47;;;9.27;;
20140;SDS011;10231;47.702;9.826;2023-02-28T08:13:28;12.60;;;10.50;;
20140;SDS011;10231;47.702;9.826;2023-02-28T08:15:54;10.67;;;9.57;;
20140;SDS011;10231;47.702;9.826;2023-02-28T08:18:20;10.87;;;9.43;;
20140;SDS011;10231;47.702;9.826;2023-02-28T08:20:46;11.03;;;9.67;;
20140;SDS011;10231;47.702;9.826;2023-02-28T08:23:12;18.70;;;14.20;;
20140;SDS011;10231;47.702;9.826;2023-02-28T08:25:38;15.80;;;12.93;;
20140;SDS011;10231;47.702;9.826;2023-02-28T08:28:04;12.70;;;11.33;;
20140;SDS011;10231;47.702;9.826;2023-02-28T08:30:29;9.97;;;8.93;;
20140;SDS011;10231;47.702;9.826;2023-02-28T08:32:55;10.37;;;9.37;;
20140;SDS011;10231;47.702;9.826;2023-02-28T08:35:21;12.73;;;10.23;;
20140;SDS011;10231;47.702;9.826;2023-02-28T08:37:47;10.83;;;9.83;;
20140;SDS011;10231;47.702;9.826;2023-02-28T08:40:13;10.93;;;9.90;;
20140;SDS011;10231;47.702;9.826;2023-02-28T08:42:43;12.57;;;9.90;;
20140;SDS011;10231;47.702;9.826;2023-02-28T08:45:09;10.80;;;9.60;;
20140;SDS011;10231;47.702;9.826;2023-02-28T08:47:36;10.53;;;9.53;;
20140;SDS011;10231;47.702;9.826;2023-02-28T08:50:01;11.20;;;10.03;;
20140;SDS011;10231;47.702;9.826;2023-02-28T08:52:27;10.93;;;9.80;;
20140;SDS011;10231;47.702;9.826;2023-02-28T08:54:52;11.60;;;10.43;;
20140;SDS011;10231;47.702;9.826;2023-02-28T08:57:18;11.07;;;10.00;;
20140;SDS011;10231;47.702;9.826;2023-02-28T08:59:43;10.97;;;9.87;;
20140;SDS011;10231;47.702;9.826;2023-02-28T09:02:11;10.80;;;9.70;;
20140;SDS011;10231;47.702;9.826;2023-02-28T09:04:38;11.13;;;9.93;;
20140;SDS011;10231;47.702;9.826;2023-02-28T09:07:03;11.07;;;9.97;;
20140;SDS011;10231;47.702;9.826;2023-02-28T09:09:29;13.00;;;9.93;;
20140;SDS011;10231;47.702;9.826;2023-02-28T09:11:55;10.77;;;9.67;;
20140;SDS011;10231;47.702;9.826;2023-02-28T09:14:21;11.17;;;10.07;;
20140;SDS011;10231;47.702;9.826;2023-02-28T09:16:47;11.27;;;8.80;;
20140;SDS011;10231;47.702;9.826;2023-02-28T09:19:12;11.33;;;10.13;;
20140;SDS011;10231;47.702;9.826;2023-02-28T09:21:38;10.83;;;9.63;;
20140;SDS011;10231;47.702;9.826;2023-02-28T09:24:04;11.53;;;10.33;;
20140;SDS011;10231;47.702;9.826;2023-02-28T09:26:30;11.20;;;9.63;;
20140;SDS011;10231;47.702;9.826;2023-02-28T09:28:56;11.00;;;9.20;;
20140;SDS011;10231;47.702;9.826;2023-02-28T09:31:24;11.17;;;10.10;;
20140;SDS011;10231;47.702;9.826;2023-02-28T09:33:51;11.03;;;9.93;;
20140;SDS011;10231;47.702;9.826;2023-02-28T09:36:19;10.87;;;9.70;;
20140;SDS011;10231;47.702;9.826;2023-02-28T09:38:45;11.17;;;10.07;;
20140;SDS011;10231;47.702;9.826;2023-02-28T09:41:15;11.37;;;10.07;;
20140;SDS011;10231;47.702;9.826;2023-02-28T09:43:47;11.20;;;10.00;;
20140;SDS011;10231;47.702;9.826;2023-02-28T09:46:37;10.47;;;9.37;;
20140;SDS011;10231;47.702;9.826;2023-02-28T09:49:06;10.63;;;9.53;;
20140;SDS011;10231;47.702;9.826;2023-02-28T09:51:43;11.00;;;9.80;;
20140;SDS011;10231;47.702;9.826;2023-02-28T09:54:16;11.67;;;9.70;;
20140;SDS011;10231;47.702;9.826;2023-02-28T09:56:51;11.17;;;9.97;;
20140;SDS011;10231;47.702;9.826;2023-02-28T09:59:32;10.67;;;9.67;;
20140;SDS011;10231;47.702;9.826;2023-02-28T10:05:11;10.53;;;9.40;;
20140;SDS011;10231;47.702;9.826;2023-02-28T10:10:17;11.07;;;9.97;;
20140;SDS011;10231;47.702;9.826;2023-02-28T10:12:45;13.33;;;10.10;;
20140;SDS011;10231;47.702;9.826;2023-02-28T10:15:15;11.13;;;9.50;;
20140;SDS011;10231;47.702;9.826;2023-02-28T10:17:43;11.67;;;10.53;;
20140;SDS011;10231;47.702;9.826;2023-02-28T10:20:14;11.27;;;10.13;;
20140;SDS011;10231;47.702;9.826;2023-02-28T10:25:27;10.50;;;9.40;;
20140;SDS011;10231;47.702;9.826;2023-02-28T10:27:54;12.07;;;10.73;;
20140;SDS011;10231;47.702;9.826;2023-02-28T10:30:25;13.20;;;11.70;;
20140;SDS011;10231;47.702;9.826;2023-02-28T10:32:52;11.80;;;10.10;;
20140;SDS011;10231;47.702;9.826;2023-02-28T10:37:46;10.87;;;9.67;;
20140;SDS011;10231;47.702;9.826;2023-02-28T10:42:54;10.13;;;9.13;;
20140;SDS011;10231;47.702;9.826;2023-02-28T10:45:20;10.93;;;9.83;;
20140;SDS011;10231;47.702;9.826;2023-02-28T10:47:53;11.77;;;9.90;;
20140;SDS011;10231;47.702;9.826;2023-02-28T10:53:24;12.07;;;10.40;;
20140;SDS011;10231;47.702;9.826;2023-02-28T11:01:08;12.10;;;10.90;;
20140;SDS011;10231;47.702;9.826;2023-02-28T11:03:42;13.40;;;11.10;;
20140;SDS011;10231;47.702;9.826;2023-02-28T11:06:11;11.70;;;10.57;;
20140;SDS011;10231;47.702;9.826;2023-02-28T11:08:47;13.00;;;10.80;;
20140;SDS011;10231;47.702;9.826;2023-02-28T11:11:20;11.97;;;10.57;;
20140;SDS011;10231;47.702;9.826;2023-02-28T11:13:50;13.70;;;10.70;;
20140;SDS011;10231;47.702;9.826;2023-02-28T11:16:18;11.50;;;10.30;;
20140;SDS011;10231;47.702;9.826;2023-02-28T11:18:50;12.57;;;10.47;;
20140;SDS011;10231;47.702;9.826;2023-02-28T11:23:54;12.43;;;10.40;;
20140;SDS011;10231;47.702;9.826;2023-02-28T11:26:37;10.70;;;9.60;;
20140;SDS011;10231;47.702;9.826;2023-02-28T11:29:10;11.87;;;10.67;;
20140;SDS011;10231;47.702;9.826;2023-02-28T11:31:41;13.13;;;10.53;;
20140;SDS011;10231;47.702;9.826;2023-02-28T11:34:25;11.97;;;9.80;;
20140;SDS011;10231;47.702;9.826;2023-02-28T11:36:53;13.13;;;11.27;;
20140;SDS011;10231;47.702;9.826;2023-02-28T11:39:21;12.37;;;11.10;;
20140;SDS011;10231;47.702;9.826;2023-02-28T11:46:59;14.70;;;11.37;;
20140;SDS011;10231;47.702;9.826;2023-02-28T11:57:34;13.30;;;11.80;;
20140;SDS011;10231;47.702;9.826;2023-02-28T12:00:35;12.57;;;11.07;;
20140;SDS011;10231;47.702;9.826;2023-02-28T12:03:15;12.53;;;11.17;;
20140;SDS011;10231;47.702;9.826;2023-02-28T12:11:23;14.60;;;11.70;;
20140;SDS011;10231;47.702;9.826;2023-02-28T12:19:32;14.87;;;11.70;;
20140;SDS011;10231;47.702;9.826;2023-02-28T12:24:55;14.17;;;11.30;;
20140;SDS011;10231;47.702;9.826;2023-02-28T12:27:37;16.00;;;12.20;;
20140;SDS011;10231;47.702;9.826;2023-02-28T12:32:44;15.77;;;12.40;;
20140;SDS011;10231;47.702;9.826;2023-02-28T12:35:14;13.93;;;11.97;;
20140;SDS011;10231;47.702;9.826;2023-02-28T12:40:15;15.33;;;12.73;;
20140;SDS011;10231;47.702;9.826;2023-02-28T12:42:47;17.10;;;13.00;;
20140;SDS011;10231;47.702;9.826;2023-02-28T12:45:18;15.87;;;13.23;;
20140;SDS011;10231;47.702;9.826;2023-02-28T12:47:48;16.50;;;13.33;;
20140;SDS011;10231;47.702;9.826;2023-02-28T12:50:20;16.07;;;13.10;;
20140;SDS011;10231;47.702;9.826;2023-02-28T12:52:51;17.23;;;13.60;;
20140;SDS011;10231;47.702;9.826;2023-02-28T13:09:50;20.13;;;13.67;;
20140;SDS011;10231;47.702;9.826;2023-02-28T13:12:21;17.10;;;13.77;;
20140;SDS011;10231;47.702;9.826;2023-02-28T13:14:48;15.67;;;13.27;;
20140;SDS011;10231;47.702;9.826;2023-02-28T13:17:21;16.30;;;13.80;;
20140;SDS011;10231;47.702;9.826;2023-02-28T13:24:54;16.47;;;13.20;;
20140;SDS011;10231;47.702;9.826;2023-02-28T13:27:22;15.30;;;13.23;;
20140;SDS011;10231;47.702;9.826;2023-02-28T13:29:59;16.03;;;13.50;;
20140;SDS011;10231;47.702;9.826;2023-02-28T13:32:33;17.30;;;13.90;;
20140;SDS011;10231;47.702;9.826;2023-02-28T13:39:55;16.47;;;14.13;;
20140;SDS011;10231;47.702;9.826;2023-02-28T13:45:36;17.23;;;14.20;;
20140;SDS011;10231;47.702;9.826;2023-02-28T13:47:43;16.00;;;13.23;;
20140;SDS011;10231;47.702;9.826;2023-02-28T13:55:52;20.47;;;15.27;;
20140;SDS011;10231;47.702;9.826;2023-02-28T13:58:41;18.20;;;15.30;;
20140;SDS011;10231;47.702;9.826;2023-02-28T14:07:20;17.60;;;14.13;;
20140;SDS011;10231;47.702;9.826;2023-02-28T14:09:52;16.33;;;13.70;;
20140;SDS011;10231;47.702;9.826;2023-02-28T14:15:39;16.80;;;14.10;;
20140;SDS011;10231;47.702;9.826;2023-02-28T14:18:16;17.10;;;13.87;;
20140;SDS011;10231;47.702;9.826;2023-02-28T14:21:26;19.63;;;14.53;;
20140;SDS011;10231;47.702;9.826;2023-02-28T14:32:33;17.90;;;14.23;;
20140;SDS011;10231;47.702;9.826;2023-02-28T14:38:04;26.03;;;16.20;;
20140;SDS011;10231;47.702;9.826;2023-02-28T14:40:35;19.03;;;14.63;;
20140;SDS011;10231;47.702;9.826;2023-02-28T14:43:04;17.87;;;14.23;;
20140;SDS011;10231;47.702;9.826;2023-02-28T14:45:32;17.97;;;13.80;;
20140;SDS011;10231;47.702;9.826;2023-02-28T14:48:02;15.73;;;13.77;;
20140;SDS011;10231;47.702;9.826;2023-02-28T14:50:34;17.67;;;14.27;;
20140;SDS011;10231;47.702;9.826;2023-02-28T14:53:02;15.87;;;12.90;;
20140;SDS011;10231;47.702;9.826;2023-02-28T14:55:29;16.50;;;14.17;;
20140;SDS011;10231;47.702;9.826;2023-02-28T14:58:04;17.27;;;13.60;;
20140;SDS011;10231;47.702;9.826;2023-02-28T15:00:32;15.63;;;13.50;;
20140;SDS011;10231;47.702;9.826;2023-02-28T15:03:11;16.40;;;13.80;;
20140;SDS011;10231;47.702;9.826;2023-02-28T15:05:57;16.03;;;13.60;;
20140;SDS011;10231;47.702;9.826;2023-02-28T15:08:30;18.80;;;14.33;;
20140;SDS011;10231;47.702;9.826;2023-02-28T15:11:01;16.97;;;13.57;;
20140;SDS011;10231;47.702;9.826;2023-02-28T15:13:42;18.23;;;14.30;;
20140;SDS011;10231;47.702;9.826;2023-02-28T15:16:22;16.30;;;13.70;;
20140;SDS011;10231;47.702;9.826;2023-02-28T15:19:00;16.40;;;12.80;;
20140;SDS011;10231;47.702;9.826;2023-02-28T15:21:33;16.70;;;14.90;;
20140;SDS011;10231;47.702;9.826;2023-02-28T15:26:32;16.33;;;14.07;;
20140;SDS011;10231;47.702;9.826;2023-02-28T15:29:07;17.63;;;14.43;;
20140;SDS011;10231;47.702;9.826;2023-02-28T15:31:45;17.53;;;14.30;;
20140;SDS011;10231;47.702;9.826;2023-02-28T15:34:19;16.87;;;13.53;;
20140;SDS011;10231;47.702;9.826;2023-02-28T15:36:46;17.33;;;14.20;;
20140;SDS011;10231;47.702;9.826;2023-02-28T15:39:26;16.67;;;13.70;;
20140;SDS011;10231;47.702;9.826;2023-02-28T15:42:12;18.50;;;13.83;;
20140;SDS011;10231;47.702;9.826;2023-02-28T15:44:45;15.10;;;13.33;;
20140;SDS011;10231;47.702;9.826;2023-02-28T15:47:24;16.73;;;13.77;;
20140;SDS011;10231;47.702;9.826;2023-02-28T15:49:56;16.87;;;13.87;;
20140;SDS011;10231;47.702;9.826;2023-02-28T15:54:59;17.17;;;14.40;;
20140;SDS011;10231;47.702;9.826;2023-02-28T15:57:51;17.90;;;14.70;;
20140;SDS011;10231;47.702;9.826;2023-02-28T16:00:24;17.53;;;14.07;;
20140;SDS011;10231;47.702;9.826;2023-02-28T16:02:51;17.73;;;13.73;;
20140;SDS011;10231;47.702;9.826;2023-02-28T16:05:29;15.80;;;13.83;;
20140;SDS011;10231;47.702;9.826;2023-02-28T16:08:00;16.00;;;13.93;;
20140;SDS011;10231;47.702;9.826;2023-02-28T16:10:36;16.57;;;13.73;;
20140;SDS011;10231;47.702;9.826;2023-02-28T16:13:01;16.83;;;13.23;;
20140;SDS011;10231;47.702;9.826;2023-02-28T16:15:29;17.57;;;13.23;;
20140;SDS011;10231;47.702;9.826;2023-02-28T16:18:00;18.00;;;13.70;;
20140;SDS011;10231;47.702;9.826;2023-02-28T16:20:29;19.80;;;14.17;;
20140;SDS011;10231;47.702;9.826;2023-02-28T16:22:55;15.67;;;13.77;;
20140;SDS011;10231;47.702;9.826;2023-02-28T16:25:29;18.10;;;15.10;;
20140;SDS011;10231;47.702;9.826;2023-02-28T16:28:00;16.73;;;14.43;;
20140;SDS011;10231;47.702;9.826;2023-02-28T16:30:27;17.53;;;13.93;;
20140;SDS011;10231;47.702;9.826;2023-02-28T16:32:56;16.37;;;12.73;;
20140;SDS011;10231;47.702;9.826;2023-02-28T16:35:22;16.77;;;13.63;;
20140;SDS011;10231;47.702;9.826;2023-02-28T16:37:48;15.53;;;13.17;;
20140;SDS011;10231;47.702;9.826;2023-02-28T16:40:20;18.60;;;14.43;;
20140;SDS011;10231;47.702;9.826;2023-02-28T16:42:51;15.27;;;12.60;;
20140;SDS011;10231;47.702;9.826;2023-02-28T16:45:24;16.97;;;13.33;;
20140;SDS011;10231;47.702;9.826;2023-02-28T16:47:51;15.13;;;13.43;;
20140;SDS011;10231;47.702;9.826;2023-02-28T16:50:19;17.87;;;14.70;;
20140;SDS011;10231;47.702;9.826;2023-02-28T16:52:49;17.00;;;13.07;;
20140;SDS011;10231;47.702;9.826;2023-02-28T16:55:17;17.47;;;13.73;;
20140;SDS011;10231;47.702;9.826;2023-02-28T16:57:43;15.97;;;14.07;;
20140;SDS011;10231;47.702;9.826;2023-02-28T17:00:12;16.13;;;13.43;;
20140;SDS011;10231;47.702;9.826;2023-02-28T17:02:38;18.83;;;14.10;;
20140;SDS011;10231;47.702;9.826;2023-02-28T17:05:05;17.70;;;13.60;;
20140;SDS011;10231;47.702;9.826;2023-02-28T17:07:31;15.10;;;13.37;;
20140;SDS011;10231;47.702;9.826;2023-02-28T17:09:57;16.37;;;13.63;;
20140;SDS011;10231;47.702;9.826;2023-02-28T17:12:25;16.70;;;13.63;;